createdAt,value
2019-03-22T04:48:12.098Z,4.00
2019-03-22T04:50:40.123Z,4.20
2019-03-22T04:53:08.633Z,4.20
2019-03-22T04:55:36.584Z,4.20
2019-03-22T04:58:04.527Z,4.30
2019-03-22T05:00:32.532Z,4.00
2019-03-22T05:03:01.465Z,4.10
2019-03-22T05:05:37.057Z,4.10
2019-03-22T05:08:04.969Z,4.40
2019-03-22T05:10:39.739Z,4.20
2019-03-22T05:13:07.988Z,4.30
2019-03-22T05:16:05.611Z,4.30
2019-03-22T05:18:33.532Z,4.10
2019-03-22T05:21:02.246Z,4.00
2019-03-22T05:23:30.251Z,4.00
2019-03-22T05:25:58.177Z,4.50
2019-03-22T05:28:28.103Z,4.90
2019-03-22T05:31:01.793Z,4.80
2019-03-22T05:33:29.819Z,4.50
2019-03-22T05:35:57.776Z,4.30
2019-03-22T05:38:25.817Z,4.10
2019-03-22T05:40:53.711Z,3.90
2019-03-22T05:43:21.804Z,3.80
2019-03-22T05:46:07.504Z,3.70
2019-03-22T05:48:35.493Z,3.90
2019-03-22T05:51:03.548Z,3.90
2019-03-22T05:53:31.691Z,3.80
2019-03-22T05:56:19.319Z,3.80
2019-03-22T05:58:47.517Z,3.80
2019-03-22T06:01:23.330Z,3.80
2019-03-22T06:03:51.480Z,4.00
2019-03-22T06:06:26.729Z,3.90
2019-03-22T06:08:54.716Z,4.30
2019-03-22T06:11:23.681Z,4.00
2019-03-22T06:13:53.222Z,4.10
2019-03-22T06:16:22.268Z,4.10
2019-03-22T06:19:20.676Z,4.10
2019-03-22T06:21:49.849Z,4.30
2019-03-22T06:24:28.073Z,4.40
2019-03-22T06:27:51.054Z,4.50
2019-03-22T06:30:16.296Z,4.40
2019-03-22T06:33:29.097Z,4.70
2019-03-22T06:36:06.625Z,4.40
2019-03-22T06:38:34.627Z,4.90
2019-03-22T06:41:03.555Z,5.10
2019-03-22T06:43:34.293Z,4.90
2019-03-22T06:46:02.241Z,5.20
2019-03-22T06:48:30.129Z,4.90
2019-03-22T06:50:58.053Z,5.40
2019-03-22T06:53:31.027Z,5.50
2019-03-22T06:55:58.936Z,5.40
2019-03-22T06:58:26.865Z,5.30
2019-03-22T07:00:54.767Z,5.40
2019-03-22T07:03:22.684Z,5.40
2019-03-22T07:05:52.547Z,5.50
2019-03-22T07:08:20.464Z,6.00
2019-03-22T07:10:49.424Z,6.10
2019-03-22T07:13:18.275Z,6.30
2019-03-22T07:15:46.176Z,6.50
2019-03-22T07:18:14.184Z,6.90
2019-03-22T07:20:42.169Z,7.20
2019-03-22T07:23:10.078Z,7.60
2019-03-22T07:25:38.087Z,7.70
2019-03-22T07:28:05.978Z,7.80
2019-03-22T07:30:33.887Z,7.90
2019-03-22T07:33:01.792Z,8.10
2019-03-22T07:35:45.476Z,8.30
2019-03-22T07:38:15.370Z,8.40
2019-03-22T07:40:43.304Z,8.40
2019-03-22T07:43:11.203Z,8.50
2019-03-22T07:45:39.207Z,8.60
2019-03-22T07:48:07.105Z,8.70
2019-03-22T07:50:35.020Z,8.80
2019-03-22T07:53:02.992Z,8.90
2019-03-22T07:55:30.907Z,9.00
2019-03-22T07:57:59.167Z,9.10
2019-03-22T08:00:31.097Z,9.10
2019-03-22T08:02:57.711Z,9.10
2019-03-22T08:05:25.612Z,9.10
2019-03-22T08:07:56.016Z,9.20
2019-03-22T08:10:23.172Z,9.40
2019-03-22T08:12:51.104Z,9.30
2019-03-22T08:15:26.476Z,9.40
2019-03-22T08:17:56.981Z,9.50
2019-03-22T08:20:24.088Z,9.40
2019-03-22T08:22:57.341Z,9.60
2019-03-22T08:25:25.303Z,9.60
2019-03-22T08:27:53.228Z,9.80
2019-03-22T08:30:23.101Z,9.70
2019-03-22T08:32:51.089Z,9.90
2019-03-22T08:35:19.923Z,10.00
2019-03-22T08:37:52.894Z,10.00
2019-03-22T08:40:19.267Z,10.00
2019-03-22T08:42:47.172Z,10.20
2019-03-22T08:45:16.131Z,10.40
2019-03-22T08:47:44.115Z,10.40
2019-03-22T08:50:12.081Z,10.50
2019-03-22T08:52:39.965Z,10.60
2019-03-22T08:55:07.857Z,10.60
2019-03-22T08:57:35.808Z,10.70
2019-03-22T09:00:05.376Z,10.70
2019-03-22T09:02:33.320Z,10.70
2019-03-22T09:05:01.277Z,10.70
2019-03-22T09:07:30.110Z,10.90
2019-03-22T09:09:58.008Z,10.80
2019-03-22T09:12:26.999Z,10.90
2019-03-22T09:14:55.064Z,11.00
2019-03-22T09:17:25.010Z,11.00
2019-03-22T09:19:52.972Z,11.10
2019-03-22T09:22:21.823Z,11.10
2019-03-22T09:24:51.707Z,11.10
2019-03-22T09:27:19.617Z,11.30
2019-03-22T09:29:47.620Z,11.30
2019-03-22T09:32:15.542Z,11.40
2019-03-22T09:34:43.434Z,11.50
2019-03-22T09:37:11.438Z,11.60
2019-03-22T09:39:39.367Z,11.60
2019-03-22T09:42:07.292Z,11.50
2019-03-22T09:44:43.069Z,11.40
2019-03-22T09:47:06.825Z,11.50
2019-03-22T09:49:34.767Z,11.50
2019-03-22T09:52:02.688Z,11.70
2019-03-22T09:54:30.656Z,11.70
2019-03-22T09:56:58.584Z,11.70
2019-03-22T09:59:27.467Z,11.90
2019-03-22T10:01:57.292Z,12.10
2019-03-22T10:04:26.218Z,12.30
2019-03-22T10:06:55.052Z,12.40
2019-03-22T10:09:22.938Z,12.40
2019-03-22T10:11:51.872Z,12.40
2019-03-22T10:14:21.409Z,12.60
2019-03-22T10:16:55.267Z,12.60
2019-03-22T10:19:23.258Z,12.80
2019-03-22T10:21:51.205Z,12.80
2019-03-22T10:24:20.058Z,12.90
2019-03-22T10:26:48.923Z,12.90
2019-03-22T10:29:16.987Z,13.00
2019-03-22T10:31:44.878Z,13.10
2019-03-22T10:34:12.843Z,13.30
2019-03-22T10:36:42.759Z,13.40
2019-03-22T10:39:10.731Z,13.40
2019-03-22T10:41:38.615Z,13.10
2019-03-22T10:44:07.555Z,13.30
2019-03-22T10:46:35.480Z,13.40
2019-03-22T10:49:03.416Z,13.40
2019-03-22T10:51:31.305Z,13.40
2019-03-22T10:53:59.204Z,13.60
2019-03-22T10:56:30.204Z,13.60
2019-03-22T10:59:00.029Z,13.70
2019-03-22T11:01:29.827Z,13.80
2019-03-22T11:06:34.319Z,13.80
2019-03-22T11:09:02.218Z,14.00
2019-03-22T11:11:30.113Z,14.10
2019-03-22T11:13:57.999Z,14.10
2019-03-22T11:16:25.905Z,14.20
2019-03-22T11:19:00.569Z,14.20
2019-03-22T11:21:28.444Z,14.20
2019-03-22T11:23:56.459Z,14.20
2019-03-22T11:26:36.256Z,14.40
2019-03-22T11:29:08.291Z,14.30
2019-03-22T11:31:40.016Z,14.30
2019-03-22T11:34:07.661Z,14.40
2019-03-22T11:36:35.614Z,14.50
2019-03-22T11:39:14.970Z,14.60
2019-03-22T11:41:34.710Z,14.50
2019-03-22T11:44:03.622Z,14.80
2019-03-22T11:46:41.660Z,14.90
2019-03-22T11:49:15.310Z,14.90
2019-03-22T11:51:43.195Z,14.90
2019-03-22T11:54:15.157Z,14.90
2019-03-22T11:56:43.111Z,14.70
2019-03-22T11:59:16.195Z,14.50
2019-03-22T12:01:45.088Z,14.90
2019-03-22T12:04:14.942Z,15.00
2019-03-22T12:06:49.110Z,15.20
2019-03-22T12:09:16.999Z,14.90
2019-03-22T12:11:47.912Z,14.50
2019-03-22T12:14:15.830Z,14.90
2019-03-22T12:16:47.469Z,15.30
2019-03-22T12:19:17.359Z,15.40
2019-03-22T12:21:49.223Z,15.50
2019-03-22T12:24:18.799Z,15.50
2019-03-22T12:26:46.782Z,15.60
2019-03-22T12:29:14.654Z,15.70
2019-03-22T12:31:52.559Z,15.40
2019-03-22T12:34:21.432Z,15.70
2019-03-22T12:36:49.327Z,15.50
2019-03-22T12:39:18.195Z,15.20
2019-03-22T12:41:46.114Z,15.40
2019-03-22T12:44:20.995Z,15.80
2019-03-22T12:46:49.278Z,16.00
2019-03-22T12:49:17.249Z,16.00
2019-03-22T12:51:45.127Z,16.00
2019-03-22T12:54:19.838Z,16.20
2019-03-22T12:57:04.820Z,16.20
2019-03-22T12:59:40.573Z,16.30
2019-03-22T13:02:15.632Z,16.00
2019-03-22T13:04:43.517Z,15.80
2019-03-22T13:07:18.189Z,16.30
2019-03-22T13:09:49.137Z,16.50
2019-03-22T13:12:17.036Z,16.60
2019-03-22T13:14:44.948Z,16.70
2019-03-22T13:17:16.133Z,16.30
2019-03-22T13:19:54.825Z,16.40
2019-03-22T13:22:22.700Z,16.40
2019-03-22T13:24:55.796Z,16.20
2019-03-22T13:27:24.572Z,16.40
2019-03-22T13:29:53.466Z,16.70
2019-03-22T13:32:22.358Z,16.80
2019-03-22T13:34:52.162Z,16.90
2019-03-22T13:37:20.069Z,16.70
2019-03-22T13:39:47.966Z,16.60
2019-03-22T13:42:15.948Z,16.80
2019-03-22T13:44:43.912Z,16.70
2019-03-22T13:47:11.857Z,16.20
2019-03-22T13:49:39.754Z,16.20
2019-03-22T13:52:07.720Z,16.20
2019-03-22T13:54:35.627Z,16.20
2019-03-22T13:57:06.563Z,16.60
2019-03-22T13:59:37.274Z,17.10
2019-03-22T14:02:05.200Z,17.10
2019-03-22T14:04:35.064Z,17.30
2019-03-22T14:07:03.104Z,17.40
2019-03-22T14:09:33.116Z,17.50
2019-03-22T14:12:01.249Z,17.50
2019-03-22T14:14:29.232Z,17.50
2019-03-22T14:16:58.245Z,17.50
2019-03-22T14:19:28.261Z,17.60
2019-03-22T14:22:05.065Z,17.90
2019-03-22T14:24:32.957Z,18.00
2019-03-22T14:27:00.853Z,17.60
2019-03-22T14:29:31.513Z,17.60
2019-03-22T14:32:05.559Z,17.60
2019-03-22T14:34:33.457Z,17.40
2019-03-22T14:37:05.295Z,17.70
2019-03-22T14:39:35.084Z,17.90
2019-03-22T14:42:02.989Z,18.00
2019-03-22T14:44:33.908Z,18.00
2019-03-22T14:47:04.843Z,18.20
2019-03-22T14:49:32.731Z,18.20
2019-03-22T14:52:09.684Z,17.90
2019-03-22T14:54:37.609Z,18.00
2019-03-22T14:57:14.731Z,18.20
2019-03-22T14:59:46.586Z,18.30
2019-03-22T15:02:14.475Z,18.40
2019-03-22T15:04:48.170Z,18.50
2019-03-22T15:07:20.079Z,18.50
2019-03-22T15:09:46.355Z,18.50
2019-03-22T15:12:14.371Z,18.50
2019-03-22T15:14:50.570Z,18.50
2019-03-22T15:17:25.305Z,18.40
2019-03-22T15:20:07.308Z,18.30
2019-03-22T15:22:54.817Z,18.40
2019-03-22T15:25:30.499Z,18.50
2019-03-22T15:28:16.691Z,18.60
2019-03-22T15:30:49.840Z,18.50
2019-03-22T15:33:34.574Z,18.50
2019-03-22T15:36:06.794Z,18.50
2019-03-22T15:38:53.066Z,18.30
2019-03-22T15:41:22.055Z,18.50
2019-03-22T15:43:55.813Z,18.50
2019-03-22T15:46:23.781Z,18.20
2019-03-22T15:48:57.890Z,18.50
2019-03-22T15:51:25.773Z,18.60
2019-03-22T15:53:53.663Z,18.70
2019-03-22T15:56:31.884Z,18.70
2019-03-22T15:59:06.030Z,18.70
2019-03-22T16:01:34.504Z,18.70
2019-03-22T16:04:02.391Z,18.80
2019-03-22T16:06:37.313Z,18.80
2019-03-22T16:09:06.776Z,18.80
2019-03-22T16:11:34.673Z,18.80
2019-03-22T16:14:04.571Z,18.80
2019-03-22T16:16:38.019Z,18.70
2019-03-22T16:19:11.798Z,18.70
2019-03-22T16:21:41.627Z,18.70
2019-03-22T16:24:21.433Z,18.70
2019-03-22T16:26:50.360Z,18.70
2019-03-22T16:29:24.168Z,18.70
2019-03-22T16:31:52.202Z,18.70
2019-03-22T16:34:20.523Z,18.70
2019-03-22T16:36:48.483Z,18.60
2019-03-22T16:39:16.954Z,18.50
2019-03-22T16:41:45.355Z,18.50
2019-03-22T16:44:14.258Z,18.50
2019-03-22T16:46:42.140Z,18.60
2019-03-22T16:49:10.245Z,18.70
2019-03-22T16:51:38.484Z,18.70
2019-03-22T16:54:06.989Z,18.60
2019-03-22T16:56:37.265Z,18.60
2019-03-22T16:59:05.153Z,18.60
2019-03-22T17:01:35.237Z,18.60
2019-03-22T17:04:18.356Z,18.60
2019-03-22T17:06:47.280Z,18.50
2019-03-22T17:09:15.235Z,18.50
2019-03-22T17:11:46.471Z,18.40
2019-03-22T17:14:21.799Z,18.30
2019-03-22T17:16:50.253Z,18.30
2019-03-22T17:19:19.142Z,18.20
2019-03-22T17:21:47.533Z,18.20
2019-03-22T17:24:16.156Z,18.10
2019-03-22T17:27:12.716Z,17.90
2019-03-22T17:29:42.532Z,17.90
2019-03-22T17:32:16.417Z,17.80
2019-03-22T17:34:44.428Z,17.80
2019-03-22T17:37:12.338Z,17.70
2019-03-22T17:39:40.371Z,17.70
2019-03-22T17:42:29.927Z,17.50
2019-03-22T17:45:01.087Z,17.50
2019-03-22T17:47:31.844Z,17.50
2019-03-22T17:50:03.341Z,17.00
2019-03-22T17:52:33.263Z,16.50
2019-03-22T17:55:01.175Z,16.20
2019-03-22T17:57:30.755Z,16.20
2019-03-22T18:00:19.951Z,16.30
2019-03-22T18:02:52.346Z,16.20
2019-03-22T18:14:31.131Z,15.80
2019-03-22T18:20:18.545Z,15.90
2019-03-22T18:22:49.266Z,15.60
2019-03-22T18:28:42.275Z,15.20
2019-03-22T18:31:16.147Z,15.30
2019-03-22T18:33:44.150Z,15.10
2019-03-22T18:36:12.245Z,15.00
2019-03-22T18:38:49.527Z,14.50
2019-03-22T18:41:26.544Z,14.60
2019-03-22T18:44:00.499Z,15.00
2019-03-22T18:46:35.489Z,15.10
2019-03-22T18:49:03.657Z,14.90
2019-03-22T18:51:31.809Z,14.60
2019-03-22T18:53:59.917Z,14.70
2019-03-22T18:56:30.309Z,15.10
2019-03-22T18:58:59.137Z,15.00
2019-03-22T19:01:27.558Z,14.60
2019-03-22T19:03:55.825Z,14.40
2019-03-22T19:06:25.410Z,14.50
2019-03-22T19:08:55.457Z,14.20
2019-03-22T19:11:29.094Z,14.40
2019-03-22T19:13:59.867Z,14.30
2019-03-22T19:16:30.169Z,14.00
2019-03-22T19:19:02.423Z,13.70
2019-03-22T19:21:30.546Z,13.60
2019-03-22T19:23:59.774Z,13.60
2019-03-22T19:26:35.947Z,13.50
2019-03-22T19:29:06.069Z,13.30
2019-03-22T19:31:34.270Z,13.10
2019-03-22T19:34:03.336Z,13.00
2019-03-22T19:36:31.428Z,13.10
2019-03-22T19:39:00.409Z,12.90
2019-03-22T19:41:31.259Z,12.70
2019-03-22T19:43:59.397Z,12.50
2019-03-22T19:46:27.319Z,12.30
2019-03-22T19:48:55.254Z,12.30
2019-03-22T19:51:23.261Z,11.90
2019-03-22T19:53:51.543Z,12.60
2019-03-22T19:56:19.662Z,12.80
2019-03-22T19:58:47.617Z,12.80
2019-03-22T20:01:15.674Z,12.60
2019-03-22T20:03:44.925Z,12.30
2019-03-22T20:06:13.913Z,11.90
2019-03-22T20:08:42.057Z,11.80
2019-03-22T20:11:12.041Z,11.70
2019-03-22T20:13:40.264Z,11.60
2019-03-22T20:16:08.508Z,11.60
2019-03-22T20:18:36.558Z,11.20
2019-03-22T20:21:04.555Z,11.50
2019-03-22T20:23:32.467Z,11.40
2019-03-22T20:26:00.463Z,11.50
2019-03-22T20:28:29.541Z,11.20
2019-03-22T20:31:00.037Z,11.00
2019-03-22T20:33:29.443Z,11.00
2019-03-22T20:35:58.919Z,11.10
2019-03-22T20:38:26.954Z,11.10
2019-03-22T20:40:55.932Z,10.90
2019-03-22T20:43:25.955Z,10.80
2019-03-22T20:45:53.907Z,10.80
2019-03-22T20:48:21.913Z,10.80
2019-03-22T20:50:49.942Z,10.80
2019-03-22T20:53:17.930Z,10.70
2019-03-22T20:55:46.904Z,10.60
2019-03-22T20:58:14.907Z,10.40
2019-03-22T21:00:42.856Z,10.20
2019-03-22T21:03:10.852Z,10.10
2019-03-22T21:05:39.805Z,10.10
2019-03-22T21:08:08.860Z,10.10
2019-03-22T21:10:37.775Z,10.10
2019-03-22T21:13:09.850Z,10.20
2019-03-22T21:15:41.142Z,10.20
2019-03-22T21:18:11.103Z,10.20
2019-03-22T21:20:44.916Z,10.10
2019-03-22T21:23:19.119Z,10.00
2019-03-22T21:25:49.822Z,10.00
2019-03-22T21:28:23.587Z,10.10
2019-03-22T21:30:53.580Z,10.10
2019-03-22T21:33:26.670Z,9.90
2019-03-22T21:35:55.574Z,9.80
2019-03-22T21:38:25.584Z,9.80
2019-03-22T21:40:58.660Z,9.90
2019-03-22T21:43:30.355Z,9.80
2019-03-22T21:46:01.114Z,9.70
2019-03-22T21:48:29.087Z,9.60
2019-03-22T21:50:59.018Z,9.60
2019-03-22T21:53:29.974Z,9.60
2019-03-22T21:55:58.916Z,9.50
2019-03-22T21:58:26.934Z,9.20
2019-03-22T22:01:00.542Z,9.10
2019-03-22T22:03:28.556Z,9.10
2019-03-22T22:05:56.564Z,9.10
2019-03-22T22:08:25.119Z,9.20
2019-03-22T22:10:59.680Z,9.10
2019-03-22T22:13:22.758Z,9.20
2019-03-22T22:15:50.743Z,9.10
2019-03-22T22:18:18.690Z,9.10
2019-03-22T22:20:52.589Z,9.10
2019-03-22T22:23:21.355Z,9.00
2019-03-22T22:25:57.182Z,9.30
2019-03-22T22:28:25.128Z,9.20
2019-03-22T22:30:55.127Z,9.20
2019-03-22T22:33:23.040Z,9.20
2019-03-22T22:35:58.622Z,9.20
2019-03-22T22:38:21.646Z,9.20
2019-03-22T22:40:49.687Z,9.30
2019-03-22T22:43:17.637Z,9.00
2019-03-22T22:45:48.859Z,9.10
2019-03-22T22:48:16.895Z,9.00
2019-03-22T22:50:50.617Z,8.90
2019-03-22T22:53:19.554Z,9.40
2019-03-22T22:55:48.399Z,9.00
2019-03-22T22:58:16.315Z,9.00
2019-03-22T23:00:44.200Z,8.60
2019-03-22T23:03:13.026Z,8.50
2019-03-22T23:05:41.796Z,8.40
2019-03-22T23:08:10.691Z,8.50
2019-03-22T23:10:38.644Z,8.40
2019-03-22T23:13:07.439Z,8.60
2019-03-22T23:15:38.535Z,9.10
2019-03-22T23:18:06.433Z,9.00
2019-03-22T23:20:34.343Z,9.10
2019-03-22T23:23:03.203Z,8.60
2019-03-22T23:25:32.111Z,8.20
2019-03-22T23:28:01.001Z,8.00
2019-03-22T23:30:34.822Z,8.00
2019-03-22T23:33:03.672Z,8.20
2019-03-22T23:35:31.554Z,7.90
2019-03-22T23:37:59.511Z,7.90
2019-03-22T23:40:33.257Z,8.00
2019-03-22T23:43:01.127Z,7.90
2019-03-22T23:45:29.012Z,7.80
2019-03-22T23:47:57.932Z,7.80
2019-03-22T23:50:26.748Z,7.80
2019-03-22T23:52:54.646Z,7.90
2019-03-22T23:55:22.559Z,8.20
2019-03-22T23:57:50.445Z,7.80
